sensor_id;sensor_type;location;lat;lon;timestamp;pressure;altitude;pressure_sealevel;temperature;humidity
24996;BME280;13016;52.162;21.034;2023-02-03T00:11:32;100770.88;;;6.88;57.14
24996;BME280;13016;52.162;21.034;2023-02-03T00:14:38;100767.39;;;6.79;56.69
24996;BME280;13016;52.162;21.034;2023-02-03T00:31:17;100770.48;;;6.71;55.72
24996;BME280;13016;52.162;21.034;2023-02-03T00:33:43;100770.17;;;6.62;55.40
24996;BME280;13016;52.162;21.034;2023-02-03T00:59:43;100790.51;;;6.61;55.20
24996;BME280;13016;52.162;21.034;2023-02-03T01:10:43;100796.16;;;6.69;54.97
24996;BME280;13016;52.162;21.034;2023-02-03T01:13:08;100797.40;;;6.64;54.60
24996;BME280;13016;52.162;21.034;2023-02-03T01:15:34;100801.73;;;6.52;54.81
24996;BME280;13016;52.162;21.034;2023-02-03T01:17:59;100806.05;;;6.49;54.96
24996;BME280;13016;52.162;21.034;2023-02-03T01:50:31;100791.55;;;6.52;55.29
24996;BME280;13016;52.162;21.034;2023-02-03T01:53:18;100787.18;;;6.61;55.38
24996;BME280;13016;52.162;21.034;2023-02-03T01:55:46;100779.71;;;6.55;55.13
24996;BME280;13016;52.162;21.034;2023-02-03T02:00:59;100771.67;;;6.50;54.79
24996;BME280;13016;52.162;21.034;2023-02-03T02:03:37;100779.11;;;6.34;54.79
24996;BME280;13016;52.162;21.034;2023-02-03T02:06:06;100782.27;;;6.48;54.81
24996;BME280;13016;52.162;21.034;2023-02-03T02:08:40;100779.34;;;6.47;54.38
24996;BME280;13016;52.162;21.034;2023-02-03T02:11:06;100783.90;;;6.14;54.31
24996;BME280;13016;52.162;21.034;2023-02-03T02:13:33;100786.65;;;6.10;54.31
24996;BME280;13016;52.162;21.034;2023-02-03T02:16:22;100787.80;;;6.31;54.28
24996;BME280;13016;52.162;21.034;2023-02-03T02:24:44;100773.38;;;6.14;51.53
24996;BME280;13016;52.162;21.034;2023-02-03T02:36:16;100772.80;;;6.34;51.20
24996;BME280;13016;52.162;21.034;2023-02-03T02:39:10;100772.58;;;6.44;50.80
24996;BME280;13016;52.162;21.034;2023-02-03T02:41:51;100767.76;;;6.33;50.71
24996;BME280;13016;52.162;21.034;2023-02-03T02:44:24;100762.04;;;6.36;50.42
24996;BME280;13016;52.162;21.034;2023-02-03T02:47:05;100755.29;;;6.29;50.32
24996;BME280;13016;52.162;21.034;2023-02-03T02:49:57;100750.88;;;6.39;50.74
24996;BME280;13016;52.162;21.034;2023-02-03T02:52:46;100747.83;;;6.36;50.54
24996;BME280;13016;52.162;21.034;2023-02-03T02:55:16;100750.05;;;6.47;50.59
24996;BME280;13016;52.162;21.034;2023-02-03T02:57:46;100751.66;;;6.41;50.51
24996;BME280;13016;52.162;21.034;2023-02-03T03:00:12;100749.41;;;6.50;50.82
24996;BME280;13016;52.162;21.034;2023-02-03T03:02:38;100752.40;;;6.50;51.01
24996;BME280;13016;52.162;21.034;2023-02-03T03:05:08;100752.11;;;6.57;51.37
24996;BME280;13016;52.162;21.034;2023-02-03T03:08:11;100752.48;;;6.61;51.35
24996;BME280;13016;52.162;21.034;2023-02-03T03:10:39;100758.06;;;6.62;51.48
24996;BME280;13016;52.162;21.034;2023-02-03T03:13:12;100754.38;;;6.62;51.51
24996;BME280;13016;52.162;21.034;2023-02-03T03:15:51;100757.85;;;6.67;51.63
24996;BME280;13016;52.162;21.034;2023-02-03T03:18:43;100754.84;;;6.59;51.70
24996;BME280;13016;52.162;21.034;2023-02-03T03:21:14;100757.66;;;6.54;51.74
24996;BME280;13016;52.162;21.034;2023-02-03T03:23:44;100755.50;;;6.56;51.97
24996;BME280;13016;52.162;21.034;2023-02-03T03:26:56;100753.14;;;6.48;52.02
24996;BME280;13016;52.162;21.034;2023-02-03T03:31:45;100763.33;;;6.25;52.19
24996;BME280;13016;52.162;21.034;2023-02-03T03:34:11;100760.29;;;6.27;52.31
24996;BME280;13016;52.162;21.034;2023-02-03T03:36:47;100759.25;;;6.21;52.66
24996;BME280;13016;52.162;21.034;2023-02-03T03:39:23;100755.33;;;6.28;52.92
24996;BME280;13016;52.162;21.034;2023-02-03T03:42:54;100749.64;;;6.30;52.79
24996;BME280;13016;52.162;21.034;2023-02-03T03:45:10;100742.88;;;6.33;52.65
24996;BME280;13016;52.162;21.034;2023-02-03T03:50:27;100737.75;;;6.25;52.74
24996;BME280;13016;52.162;21.034;2023-02-03T03:52:55;100742.20;;;6.23;52.72
24996;BME280;13016;52.162;21.034;2023-02-03T03:55:23;100744.05;;;6.25;53.00
24996;BME280;13016;52.162;21.034;2023-02-03T03:58:12;100748.12;;;6.24;52.87
24996;BME280;13016;52.162;21.034;2023-02-03T04:00:39;100747.18;;;6.02;52.65
24996;BME280;13016;52.162;21.034;2023-02-03T04:03:17;100746.66;;;5.97;53.08
24996;BME280;13016;52.162;21.034;2023-02-03T04:05:45;100744.44;;;5.96;53.07
24996;BME280;13016;52.162;21.034;2023-02-03T04:08:11;100745.63;;;5.92;53.31
24996;BME280;13016;52.162;21.034;2023-02-03T04:10:39;100745.09;;;5.77;53.43
24996;BME280;13016;52.162;21.034;2023-02-03T04:13:06;100744.17;;;5.83;53.67
24996;BME280;13016;52.162;21.034;2023-02-03T04:18:39;100739.07;;;5.68;53.80
24996;BME280;13016;52.162;21.034;2023-02-03T04:21:05;100746.77;;;5.64;54.39
24996;BME280;13016;52.162;21.034;2023-02-03T04:23:30;100751.33;;;5.68;54.55
24996;BME280;13016;52.162;21.034;2023-02-03T04:25:55;100748.74;;;5.57;54.02
24996;BME280;13016;52.162;21.034;2023-02-03T04:28:21;100744.33;;;5.43;54.09
24996;BME280;13016;52.162;21.034;2023-02-03T04:30:49;100744.23;;;5.46;54.38
24996;BME280;13016;52.162;21.034;2023-02-03T04:36:17;100747.08;;;5.40;54.23
24996;BME280;13016;52.162;21.034;2023-02-03T04:38:43;100745.45;;;5.41;54.37
24996;BME280;13016;52.162;21.034;2023-02-03T04:44:11;100750.84;;;5.32;54.31
24996;BME280;13016;52.162;21.034;2023-02-03T04:46:36;100751.12;;;5.34;54.58
24996;BME280;13016;52.162;21.034;2023-02-03T04:49:01;100745.83;;;5.35;54.47
24996;BME280;13016;52.162;21.034;2023-02-03T04:51:27;100743.98;;;5.28;54.17
24996;BME280;13016;52.162;21.034;2023-02-03T04:53:55;100738.04;;;5.33;54.55
24996;BME280;13016;52.162;21.034;2023-02-03T04:56:20;100734.85;;;5.39;54.43
24996;BME280;13016;52.162;21.034;2023-02-03T04:58:45;100736.36;;;5.37;54.43
24996;BME280;13016;52.162;21.034;2023-02-03T05:01:44;100737.96;;;5.45;54.12
24996;BME280;13016;52.162;21.034;2023-02-03T05:04:10;100733.46;;;5.49;54.08
24996;BME280;13016;52.162;21.034;2023-02-03T05:06:35;100724.52;;;5.44;53.98
24996;BME280;13016;52.162;21.034;2023-02-03T05:09:01;100716.94;;;5.41;53.84
24996;BME280;13016;52.162;21.034;2023-02-03T05:11:26;100716.23;;;5.41;54.07
24996;BME280;13016;52.162;21.034;2023-02-03T05:13:52;100715.64;;;5.38;54.23
24996;BME280;13016;52.162;21.034;2023-02-03T05:16:27;100714.18;;;5.35;54.33
24996;BME280;13016;52.162;21.034;2023-02-03T05:18:52;100714.65;;;5.31;54.39
24996;BME280;13016;52.162;21.034;2023-02-03T05:21:20;100712.48;;;5.33;54.47
24996;BME280;13016;52.162;21.034;2023-02-03T05:23:45;100713.02;;;5.33;54.68
24996;BME280;13016;52.162;21.034;2023-02-03T05:26:11;100715.39;;;5.25;55.12
24996;BME280;13016;52.162;21.034;2023-02-03T05:28:36;100714.96;;;5.27;55.07
24996;BME280;13016;52.162;21.034;2023-02-03T05:31:02;100709.58;;;5.37;55.12
24996;BME280;13016;52.162;21.034;2023-02-03T05:33:28;100711.52;;;5.41;54.95
24996;BME280;13016;52.162;21.034;2023-02-03T05:35:53;100711.98;;;5.33;54.91
24996;BME280;13016;52.162;21.034;2023-02-03T05:38:18;100712.14;;;5.38;54.97
24996;BME280;13016;52.162;21.034;2023-02-03T05:40:59;100715.78;;;5.39;55.13
24996;BME280;13016;52.162;21.034;2023-02-03T05:43:28;100710.95;;;5.28;54.84
24996;BME280;13016;52.162;21.034;2023-02-03T05:45:54;100705.58;;;5.26;55.28
24996;BME280;13016;52.162;21.034;2023-02-03T05:48:19;100705.38;;;5.27;55.21
24996;BME280;13016;52.162;21.034;2023-02-03T05:50:44;100702.25;;;5.26;55.52
24996;BME280;13016;52.162;21.034;2023-02-03T05:53:10;100699.05;;;5.28;55.45
24996;BME280;13016;52.162;21.034;2023-02-03T05:58:06;100698.97;;;5.14;55.58
24996;BME280;13016;52.162;21.034;2023-02-03T06:00:32;100699.63;;;5.16;55.73
24996;BME280;13016;52.162;21.034;2023-02-03T06:02:59;100701.63;;;5.13;55.92
24996;BME280;13016;52.162;21.034;2023-02-03T06:05:25;100697.58;;;5.14;56.00
24996;BME280;13016;52.162;21.034;2023-02-03T06:07:51;100692.33;;;5.25;56.29
24996;BME280;13016;52.162;21.034;2023-02-03T06:10:17;100695.04;;;5.22;56.03
24996;BME280;13016;52.162;21.034;2023-02-03T06:12:43;100688.70;;;5.08;55.93
24996;BME280;13016;52.162;21.034;2023-02-03T06:15:09;100688.65;;;5.09;56.14
24996;BME280;13016;52.162;21.034;2023-02-03T06:17:35;100689.92;;;5.02;56.40
24996;BME280;13016;52.162;21.034;2023-02-03T06:20:07;100691.97;;;5.14;56.54
24996;BME280;13016;52.162;21.034;2023-02-03T06:23:05;100688.38;;;5.28;56.81
24996;BME280;13016;52.162;21.034;2023-02-03T06:25:30;100680.52;;;5.22;56.19
24996;BME280;13016;52.162;21.034;2023-02-03T06:27:55;100677.81;;;4.94;56.47
24996;BME280;13016;52.162;21.034;2023-02-03T06:30:20;100672.81;;;4.81;56.93
24996;BME280;13016;52.162;21.034;2023-02-03T06:32:49;100678.08;;;4.86;57.28
24996;BME280;13016;52.162;21.034;2023-02-03T06:35:16;100676.13;;;4.81;57.38
24996;BME280;13016;52.162;21.034;2023-02-03T06:38:05;100669.51;;;4.59;57.71
24996;BME280;13016;52.162;21.034;2023-02-03T06:40:36;100662.44;;;4.67;58.10
24996;BME280;13016;52.162;21.034;2023-02-03T06:43:02;100659.71;;;4.91;57.88
24996;BME280;13016;52.162;21.034;2023-02-03T06:45:27;100652.01;;;5.07;57.76
24996;BME280;13016;52.162;21.034;2023-02-03T06:47:53;100648.91;;;5.21;57.73
24996;BME280;13016;52.162;21.034;2023-02-03T06:50:18;100640.66;;;5.31;57.49
24996;BME280;13016;52.162;21.034;2023-02-03T06:52:44;100641.45;;;5.38;57.21
24996;BME280;13016;52.162;21.034;2023-02-03T06:55:09;100635.16;;;5.33;56.80
24996;BME280;13016;52.162;21.034;2023-02-03T06:57:35;100632.48;;;5.30;56.83
24996;BME280;13016;52.162;21.034;2023-02-03T07:00:00;100628.06;;;5.31;56.67
24996;BME280;13016;52.162;21.034;2023-02-03T07:02:26;100626.21;;;5.39;56.78
24996;BME280;13016;52.162;21.034;2023-02-03T07:04:51;100623.77;;;5.53;56.94
24996;BME280;13016;52.162;21.034;2023-02-03T07:07:17;100615.28;;;5.60;56.82
24996;BME280;13016;52.162;21.034;2023-02-03T07:09:43;100611.45;;;5.64;56.49
24996;BME280;13016;52.162;21.034;2023-02-03T07:12:11;100607.61;;;5.69;56.63
24996;BME280;13016;52.162;21.034;2023-02-03T07:14:39;100603.40;;;5.84;56.59
24996;BME280;13016;52.162;21.034;2023-02-03T07:17:05;100600.25;;;5.64;55.80
24996;BME280;13016;52.162;21.034;2023-02-03T07:19:30;100592.19;;;5.37;56.23
24996;BME280;13016;52.162;21.034;2023-02-03T07:21:56;100587.56;;;5.48;56.57
24996;BME280;13016;52.162;21.034;2023-02-03T07:24:21;100582.85;;;5.48;56.21
24996;BME280;13016;52.162;21.034;2023-02-03T07:26:46;100583.67;;;5.68;56.23
24996;BME280;13016;52.162;21.034;2023-02-03T07:29:12;100580.96;;;5.65;56.01
24996;BME280;13016;52.162;21.034;2023-02-03T07:31:37;100579.64;;;5.78;55.57
24996;BME280;13016;52.162;21.034;2023-02-03T07:34:03;100580.74;;;5.66;55.58
24996;BME280;13016;52.162;21.034;2023-02-03T07:36:29;100581.86;;;5.79;55.46
24996;BME280;13016;52.162;21.034;2023-02-03T07:38:57;100575.98;;;5.58;55.28
24996;BME280;13016;52.162;21.034;2023-02-03T07:41:23;100567.50;;;5.47;56.12
24996;BME280;13016;52.162;21.034;2023-02-03T07:43:53;100566.74;;;5.57;56.12
24996;BME280;13016;52.162;21.034;2023-02-03T07:46:18;100562.76;;;6.07;55.52
24996;BME280;13016;52.162;21.034;2023-02-03T07:48:49;100555.17;;;6.00;54.63
24996;BME280;13016;52.162;21.034;2023-02-03T07:51:15;100551.90;;;6.33;54.25
24996;BME280;13016;52.162;21.034;2023-02-03T07:53:40;100540.27;;;6.35;53.81
24996;BME280;13016;52.162;21.034;2023-02-03T07:56:05;100534.77;;;6.57;53.37
24996;BME280;13016;52.162;21.034;2023-02-03T07:58:31;100534.34;;;6.39;52.88
24996;BME280;13016;52.162;21.034;2023-02-03T08:00:59;100534.52;;;6.59;53.31
24996;BME280;13016;52.162;21.034;2023-02-03T08:03:25;100526.54;;;6.65;52.22
24996;BME280;13016;52.162;21.034;2023-02-03T08:05:50;100524.23;;;6.78;52.03
24996;BME280;13016;52.162;21.034;2023-02-03T08:08:15;100517.90;;;6.70;51.45
24996;BME280;13016;52.162;21.034;2023-02-03T08:10:41;100513.36;;;6.70;52.43
24996;BME280;13016;52.162;21.034;2023-02-03T08:13:06;100509.77;;;6.96;51.74
24996;BME280;13016;52.162;21.034;2023-02-03T08:15:32;100501.08;;;6.98;51.26
24996;BME280;13016;52.162;21.034;2023-02-03T08:17:57;100498.27;;;6.94;51.07
24996;BME280;13016;52.162;21.034;2023-02-03T08:20:22;100498.14;;;7.09;50.57
24996;BME280;13016;52.162;21.034;2023-02-03T08:22:48;100503.33;;;7.15;50.33
24996;BME280;13016;52.162;21.034;2023-02-03T08:25:13;100501.02;;;7.11;50.57
24996;BME280;13016;52.162;21.034;2023-02-03T08:27:40;100498.36;;;7.04;50.49
24996;BME280;13016;52.162;21.034;2023-02-03T08:30:06;100494.38;;;6.99;50.93
24996;BME280;13016;52.162;21.034;2023-02-03T08:32:32;100492.89;;;7.43;50.42
24996;BME280;13016;52.162;21.034;2023-02-03T08:35:04;100491.02;;;7.79;49.59
24996;BME280;13016;52.162;21.034;2023-02-03T08:37:30;100487.17;;;7.93;48.83
24996;BME280;13016;52.162;21.034;2023-02-03T08:39:55;100480.17;;;7.96;48.49
24996;BME280;13016;52.162;21.034;2023-02-03T08:42:29;100471.77;;;8.13;48.36
24996;BME280;13016;52.162;21.034;2023-02-03T08:44:54;100468.41;;;8.07;47.79
24996;BME280;13016;52.162;21.034;2023-02-03T08:47:23;100467.02;;;7.67;48.28
24996;BME280;13016;52.162;21.034;2023-02-03T08:49:48;100460.83;;;7.61;48.49
24996;BME280;13016;52.162;21.034;2023-02-03T08:52:14;100458.88;;;8.00;48.62
24996;BME280;13016;52.162;21.034;2023-02-03T08:54:40;100457.33;;;7.86;47.53
24996;BME280;13016;52.162;21.034;2023-02-03T08:57:05;100455.39;;;7.75;47.73
24996;BME280;13016;52.162;21.034;2023-02-03T08:59:31;100448.67;;;7.69;47.83
24996;BME280;13016;52.162;21.034;2023-02-03T09:01:57;100446.04;;;7.40;48.26
24996;BME280;13016;52.162;21.034;2023-02-03T09:04:22;100443.74;;;7.43;48.23
24996;BME280;13016;52.162;21.034;2023-02-03T09:06:47;100433.95;;;7.32;48.51
24996;BME280;13016;52.162;21.034;2023-02-03T09:09:16;100425.58;;;7.30;48.43
24996;BME280;13016;52.162;21.034;2023-02-03T09:11:42;100420.98;;;7.35;48.00
24996;BME280;13016;52.162;21.034;2023-02-03T09:14:08;100422.50;;;7.44;47.85
24996;BME280;13016;52.162;21.034;2023-02-03T09:16:34;100416.16;;;7.44;48.09
24996;BME280;13016;52.162;21.034;2023-02-03T09:19:00;100413.58;;;7.65;47.96
24996;BME280;13016;52.162;21.034;2023-02-03T09:21:25;100408.76;;;7.59;47.31
24996;BME280;13016;52.162;21.034;2023-02-03T09:23:50;100401.13;;;7.96;47.49
24996;BME280;13016;52.162;21.034;2023-02-03T09:26:15;100398.91;;;8.23;46.39
24996;BME280;13016;52.162;21.034;2023-02-03T09:28:41;100391.23;;;8.43;46.17
24996;BME280;13016;52.162;21.034;2023-02-03T09:31:09;100393.46;;;8.60;45.86
24996;BME280;13016;52.162;21.034;2023-02-03T09:33:35;100388.08;;;8.66;44.95
24996;BME280;13016;52.162;21.034;2023-02-03T09:36:01;100380.93;;;8.45;44.66
24996;BME280;13016;52.162;21.034;2023-02-03T09:38:27;100373.98;;;8.40;44.17
24996;BME280;13016;52.162;21.034;2023-02-03T09:46:25;100359.30;;;7.79;44.03
24996;BME280;13016;52.162;21.034;2023-02-03T09:48:56;100352.27;;;7.97;44.43
24996;BME280;13016;52.162;21.034;2023-02-03T09:56:59;100324.01;;;7.90;44.04
24996;BME280;13016;52.162;21.034;2023-02-03T09:59:26;100319.19;;;7.81;43.78
24996;BME280;13016;52.162;21.034;2023-02-03T10:04:44;100306.30;;;8.26;44.02
24996;BME280;13016;52.162;21.034;2023-02-03T10:07:23;100302.40;;;8.34;43.75
24996;BME280;13016;52.162;21.034;2023-02-03T10:20:34;100268.73;;;7.85;43.69
24996;BME280;13016;52.162;21.034;2023-02-03T10:23:06;100258.54;;;7.62;43.27
24996;BME280;13016;52.162;21.034;2023-02-03T10:25:52;100252.31;;;7.36;43.96
24996;BME280;13016;52.162;21.034;2023-02-03T10:28:20;100241.27;;;7.36;44.40
24996;BME280;13016;52.162;21.034;2023-02-03T10:30:48;100243.44;;;7.20;44.74
24996;BME280;13016;52.162;21.034;2023-02-03T10:33:16;100236.55;;;7.46;44.17
24996;BME280;13016;52.162;21.034;2023-02-03T10:35:54;100225.02;;;7.24;44.45
24996;BME280;13016;52.162;21.034;2023-02-03T10:41:10;100209.48;;;7.93;43.73
24996;BME280;13016;52.162;21.034;2023-02-03T10:43:35;100201.44;;;7.73;43.23
24996;BME280;13016;52.162;21.034;2023-02-03T10:46:01;100194.40;;;7.25;43.59
24996;BME280;13016;52.162;21.034;2023-02-03T10:48:26;100193.59;;;7.51;43.90
24996;BME280;13016;52.162;21.034;2023-02-03T10:50:56;100186.16;;;7.53;43.74
24996;BME280;13016;52.162;21.034;2023-02-03T10:53:26;100178.81;;;7.86;43.36
24996;BME280;13016;52.162;21.034;2023-02-03T10:58:29;100161.35;;;7.81;43.57
24996;BME280;13016;52.162;21.034;2023-02-03T11:01:03;100149.05;;;7.71;43.17
24996;BME280;13016;52.162;21.034;2023-02-03T11:03:52;100135.23;;;7.02;44.20
24996;BME280;13016;52.162;21.034;2023-02-03T11:06:19;100127.80;;;7.00;44.83
24996;BME280;13016;52.162;21.034;2023-02-03T11:11:47;100101.21;;;6.64;44.80
24996;BME280;13016;52.162;21.034;2023-02-03T11:17:20;100073.86;;;6.68;45.65
24996;BME280;13016;52.162;21.034;2023-02-03T11:19:47;100062.99;;;6.57;45.60
24996;BME280;13016;52.162;21.034;2023-02-03T11:22:31;100059.84;;;7.06;45.03
24996;BME280;13016;52.162;21.034;2023-02-03T11:25:14;100055.49;;;7.15;44.88
24996;BME280;13016;52.162;21.034;2023-02-03T11:27:41;100050.16;;;7.36;44.00
24996;BME280;13016;52.162;21.034;2023-02-03T11:30:32;100036.63;;;7.20;44.21
24996;BME280;13016;52.162;21.034;2023-02-03T11:33:01;100024.86;;;6.66;44.97
24996;BME280;13016;52.162;21.034;2023-02-03T11:35:28;100016.27;;;6.42;45.87
24996;BME280;13016;52.162;21.034;2023-02-03T11:37:56;100006.52;;;6.52;45.46
24996;BME280;13016;52.162;21.034;2023-02-03T11:40:26;99996.83;;;6.60;45.16
24996;BME280;13016;52.162;21.034;2023-02-03T11:47:53;99970.93;;;6.72;45.48
24996;BME280;13016;52.162;21.034;2023-02-03T11:50:36;99966.10;;;6.74;44.70
24996;BME280;13016;52.162;21.034;2023-02-03T11:59:18;99949.59;;;6.31;45.89
24996;BME280;13016;52.162;21.034;2023-02-03T12:02:16;99947.37;;;6.60;45.91
24996;BME280;13016;52.162;21.034;2023-02-03T12:07:57;99930.27;;;6.89;45.03
24996;BME280;13016;52.162;21.034;2023-02-03T12:19:00;99908.73;;;6.98;44.37
24996;BME280;13016;52.162;21.034;2023-02-03T12:21:46;99904.63;;;7.06;43.65
24996;BME280;13016;52.162;21.034;2023-02-03T12:24:32;99893.39;;;7.06;44.06
24996;BME280;13016;52.162;21.034;2023-02-03T12:29:40;99881.16;;;7.34;43.74
24996;BME280;13016;52.162;21.034;2023-02-03T12:32:18;99878.11;;;7.19;43.57
24996;BME280;13016;52.162;21.034;2023-02-03T12:37:49;99868.48;;;7.22;43.51
24996;BME280;13016;52.162;21.034;2023-02-03T12:40:21;99859.14;;;7.04;43.54
24996;BME280;13016;52.162;21.034;2023-02-03T12:43:20;99855.63;;;6.94;43.90
24996;BME280;13016;52.162;21.034;2023-02-03T12:45:54;99846.48;;;6.79;43.97
24996;BME280;13016;52.162;21.034;2023-02-03T12:51:14;99827.35;;;6.82;44.16
24996;BME280;13016;52.162;21.034;2023-02-03T12:53:47;99816.95;;;7.18;43.97
24996;BME280;13016;52.162;21.034;2023-02-03T12:56:30;99808.95;;;7.23;43.48
24996;BME280;13016;52.162;21.034;2023-02-03T12:59:03;99794.48;;;7.19;43.29
24996;BME280;13016;52.162;21.034;2023-02-03T13:01:39;99785.96;;;6.82;43.94
24996;BME280;13016;52.162;21.034;2023-02-03T13:11:58;99747.29;;;6.59;45.35
24996;BME280;13016;52.162;21.034;2023-02-03T13:16:57;99730.39;;;6.95;45.64
24996;BME280;13016;52.162;21.034;2023-02-03T13:19:28;99716.58;;;6.67;46.14
24996;BME280;13016;52.162;21.034;2023-02-03T13:22:01;99713.48;;;6.81;46.23
24996;BME280;13016;52.162;21.034;2023-02-03T13:24:28;99708.20;;;6.78;46.21
24996;BME280;13016;52.162;21.034;2023-02-03T13:27:05;99698.55;;;6.79;46.80
24996;BME280;13016;52.162;21.034;2023-02-03T13:40:48;99641.56;;;5.40;54.93
24996;BME280;13016;52.162;21.034;2023-02-03T13:43:23;99635.68;;;5.46;56.23
24996;BME280;13016;52.162;21.034;2023-02-03T13:45:51;99632.30;;;5.27;56.97
24996;BME280;13016;52.162;21.034;2023-02-03T13:48:19;99622.73;;;5.46;57.01
24996;BME280;13016;52.162;21.034;2023-02-03T13:50:46;99619.54;;;5.47;57.25
24996;BME280;13016;52.162;21.034;2023-02-03T13:55:50;99618.96;;;5.42;58.62
24996;BME280;13016;52.162;21.034;2023-02-03T13:58:30;99613.63;;;5.30;59.03
24996;BME280;13016;52.162;21.034;2023-02-03T14:01:03;99610.86;;;5.52;58.96
24996;BME280;13016;52.162;21.034;2023-02-03T14:05:57;99597.16;;;5.40;59.39
24996;BME280;13016;52.162;21.034;2023-02-03T14:16:35;99564.27;;;5.24;60.92
24996;BME280;13016;52.162;21.034;2023-02-03T14:19:02;99566.27;;;5.19;61.71
24996;BME280;13016;52.162;21.034;2023-02-03T14:21:37;99554.98;;;5.21;62.14
24996;BME280;13016;52.162;21.034;2023-02-03T14:24:07;99550.89;;;5.42;61.79
24996;BME280;13016;52.162;21.034;2023-02-03T14:26:37;99543.80;;;5.47;61.46
24996;BME280;13016;52.162;21.034;2023-02-03T14:29:22;99541.80;;;5.29;61.36
24996;BME280;13016;52.162;21.034;2023-02-03T14:31:54;99537.78;;;5.19;61.84
24996;BME280;13016;52.162;21.034;2023-02-03T14:34:49;99532.14;;;5.27;61.84
